createdAt,value
2023-01-09T00:01:31.614Z,9.60
2023-01-09T00:03:59.751Z,7.10
2023-01-09T00:06:28.480Z,4.60
2023-01-09T00:08:56.669Z,4.17
2023-01-09T00:11:26.145Z,3.43
2023-01-09T00:13:54.581Z,11.20
2023-01-09T00:16:24.201Z,6.63
2023-01-09T00:18:53.406Z,5.10
2023-01-09T00:21:21.869Z,3.93
2023-01-09T00:23:50.156Z,4.23
2023-01-09T00:26:20.367Z,3.70
2023-01-09T00:28:50.296Z,3.73
2023-01-09T00:31:19.612Z,3.90
2023-01-09T00:34:01.508Z,16.77
2023-01-09T00:36:30.189Z,4.07
2023-01-09T00:38:58.521Z,4.50
2023-01-09T00:41:29.097Z,3.60
2023-01-09T00:44:00.807Z,6.43
2023-01-09T00:46:32.869Z,3.33
2023-01-09T00:49:06.477Z,3.50
2023-01-09T00:51:34.773Z,3.87
2023-01-09T00:54:06.294Z,6.70
2023-01-09T00:56:37.573Z,7.10
2023-01-09T00:59:07.391Z,3.73
2023-01-09T01:01:35.617Z,4.30
2023-01-09T01:04:25.697Z,3.77
2023-01-09T01:07:11.372Z,4.20
2023-01-09T01:09:39.741Z,3.50
2023-01-09T01:12:08.283Z,3.50
2023-01-09T01:14:36.888Z,4.07
2023-01-09T01:17:05.579Z,5.13
2023-01-09T01:19:35.954Z,8.47
2023-01-09T01:22:04.791Z,3.47
2023-01-09T01:24:33.101Z,4.57
2023-01-09T01:27:01.273Z,5.60
2023-01-09T01:29:29.528Z,7.27
2023-01-09T01:31:58.117Z,3.40
2023-01-09T01:34:26.235Z,4.17
2023-01-09T01:36:55.769Z,6.53
2023-01-09T01:39:23.894Z,3.73
2023-01-09T01:41:52.052Z,3.17
2023-01-09T01:44:57.540Z,4.63
2023-01-09T01:47:32.390Z,3.67
2023-01-09T01:50:03.750Z,3.83
2023-01-09T01:52:35.834Z,9.63
2023-01-09T01:55:06.193Z,3.60
2023-01-09T01:57:35.349Z,4.90
2023-01-09T02:00:04.973Z,6.10
2023-01-09T02:02:34.614Z,7.33
2023-01-09T02:05:03.719Z,7.40
2023-01-09T02:07:33.287Z,14.53
2023-01-09T02:10:01.848Z,3.03
2023-01-09T02:12:30.113Z,2.53
2023-01-09T02:15:03.993Z,3.90
2023-01-09T02:17:46.902Z,4.83
2023-01-09T02:20:47.476Z,8.57
2023-01-09T02:23:50.479Z,4.87
2023-01-09T02:27:06.023Z,2.53
2023-01-09T02:30:11.262Z,4.67
2023-01-09T02:32:53.075Z,6.17
2023-01-09T02:35:34.489Z,7.60
2023-01-09T02:38:13.159Z,2.27
2023-01-09T02:40:48.223Z,2.60
2023-01-09T02:43:17.395Z,5.43
2023-01-09T02:45:45.508Z,5.20
2023-01-09T02:48:15.236Z,2.40
2023-01-09T02:50:49.228Z,4.03
2023-01-09T02:53:52.478Z,2.20
2023-01-09T02:56:32.953Z,2.33
2023-01-09T02:59:22.449Z,1.93
2023-01-09T03:02:04.219Z,2.10
2023-01-09T03:04:44.357Z,5.03
2023-01-09T03:07:20.722Z,3.00
2023-01-09T03:09:51.701Z,2.10
2023-01-09T03:12:24.712Z,2.73
2023-01-09T03:14:57.549Z,6.13
2023-01-09T03:17:29.661Z,5.67
2023-01-09T03:20:02.506Z,4.10
2023-01-09T03:22:30.604Z,3.90
2023-01-09T03:24:58.746Z,7.90
2023-01-09T03:27:27.154Z,4.63
2023-01-09T03:29:56.695Z,2.70
2023-01-09T03:32:25.241Z,7.37
2023-01-09T03:34:53.467Z,3.10
2023-01-09T03:37:23.016Z,4.53
2023-01-09T03:39:51.311Z,4.20
2023-01-09T03:42:19.388Z,5.70
2023-01-09T03:44:47.517Z,4.73
2023-01-09T03:47:15.699Z,9.90
2023-01-09T03:49:43.866Z,3.43
2023-01-09T03:52:13.999Z,4.80
2023-01-09T03:54:43.631Z,5.63
2023-01-09T03:57:11.845Z,2.77
2023-01-09T03:59:40.436Z,3.63
2023-01-09T04:02:08.843Z,6.77
2023-01-09T04:04:37.128Z,4.47
2023-01-09T04:07:05.330Z,4.83
2023-01-09T04:09:33.448Z,11.57
2023-01-09T04:12:02.967Z,5.73
2023-01-09T04:14:31.096Z,3.17
2023-01-09T04:16:59.201Z,5.60
2023-01-09T04:19:28.393Z,10.83
2023-01-09T04:21:56.509Z,4.37
2023-01-09T04:24:24.647Z,12.00
2023-01-09T04:26:52.778Z,5.97
2023-01-09T04:29:22.661Z,2.03
2023-01-09T04:31:51.000Z,9.37
2023-01-09T04:34:19.249Z,4.27
2023-01-09T04:36:47.911Z,2.07
2023-01-09T04:39:15.963Z,8.57
2023-01-09T04:41:52.831Z,5.10
2023-01-09T04:44:26.279Z,3.33
2023-01-09T04:46:56.158Z,6.80
2023-01-09T04:49:24.408Z,3.70
2023-01-09T04:51:52.733Z,7.27
2023-01-09T04:54:21.390Z,9.40
2023-01-09T04:56:49.552Z,5.43
2023-01-09T04:59:18.155Z,8.90
2023-01-09T05:01:47.845Z,7.73
2023-01-09T05:04:16.269Z,4.93
2023-01-09T05:06:44.473Z,6.70
2023-01-09T05:09:12.692Z,5.80
2023-01-09T05:11:40.854Z,5.07
2023-01-09T05:14:09.208Z,4.83
2023-01-09T05:16:37.362Z,14.03
2023-01-09T05:19:06.948Z,5.33
2023-01-09T05:21:35.067Z,5.57
2023-01-09T05:24:03.307Z,4.20
2023-01-09T05:26:31.878Z,14.57
2023-01-09T05:29:00.118Z,6.57
2023-01-09T05:31:28.906Z,10.87
2023-01-09T05:33:59.329Z,7.83
2023-01-09T05:36:29.775Z,9.17
2023-01-09T05:38:58.421Z,5.07
2023-01-09T05:41:26.821Z,9.33
2023-01-09T05:43:55.152Z,7.23
2023-01-09T05:46:23.350Z,4.73
2023-01-09T05:48:51.594Z,4.23
2023-01-09T05:51:19.708Z,4.07
2023-01-09T05:53:49.415Z,5.00
2023-01-09T05:56:17.689Z,5.30
2023-01-09T05:58:45.768Z,9.27
2023-01-09T06:01:13.860Z,5.57
2023-01-09T06:03:42.071Z,9.97
2023-01-09T06:06:10.278Z,6.00
2023-01-09T06:08:38.397Z,5.10
2023-01-09T06:11:07.956Z,5.33
2023-01-09T06:13:36.144Z,9.00
2023-01-09T06:16:04.294Z,6.20
2023-01-09T06:18:32.449Z,7.93
2023-01-09T06:21:00.563Z,6.17
2023-01-09T06:23:28.766Z,11.83
2023-01-09T06:25:56.812Z,7.73
2023-01-09T06:28:26.337Z,10.93
2023-01-09T06:30:54.689Z,6.97
2023-01-09T06:33:22.845Z,3.93
2023-01-09T06:35:51.023Z,8.97
2023-01-09T06:38:19.159Z,6.60
2023-01-09T06:40:47.527Z,6.00
2023-01-09T06:43:15.598Z,4.67
2023-01-09T06:45:45.339Z,7.10
2023-01-09T06:48:13.952Z,5.20
2023-01-09T06:50:42.292Z,14.73
2023-01-09T06:53:10.785Z,8.70
2023-01-09T06:55:38.993Z,11.30
2023-01-09T06:58:07.205Z,13.13
2023-01-09T07:00:41.215Z,5.83
2023-01-09T07:03:11.690Z,13.53
2023-01-09T07:05:42.339Z,5.43
2023-01-09T07:08:10.837Z,8.33
2023-01-09T07:10:39.167Z,5.40
2023-01-09T07:13:07.264Z,4.53
2023-01-09T07:15:35.470Z,7.57
2023-01-09T07:18:03.966Z,5.47
2023-01-09T07:20:33.813Z,6.63
2023-01-09T07:23:01.986Z,5.77
2023-01-09T07:25:30.374Z,4.43
2023-01-09T07:27:59.055Z,4.33
2023-01-09T07:30:27.257Z,9.63
2023-01-09T07:32:55.516Z,5.60
2023-01-09T07:35:23.705Z,4.83
2023-01-09T07:37:53.295Z,8.37
2023-01-09T07:40:21.459Z,3.53
2023-01-09T07:42:49.698Z,5.60
2023-01-09T07:45:17.982Z,12.67
2023-01-09T07:47:46.037Z,3.70
2023-01-09T07:50:14.336Z,7.17
2023-01-09T07:52:42.436Z,4.20
2023-01-09T07:55:12.619Z,8.77
2023-01-09T07:57:40.799Z,4.90
2023-01-09T08:00:11.138Z,4.30
2023-01-09T08:02:39.311Z,5.97
2023-01-09T08:05:09.066Z,2.97
2023-01-09T08:07:37.149Z,7.20
2023-01-09T08:10:05.877Z,7.37
2023-01-09T08:12:35.457Z,9.57
2023-01-09T08:15:03.548Z,7.03
2023-01-09T08:17:31.673Z,3.77
2023-01-09T08:19:59.903Z,6.00
2023-01-09T08:22:28.141Z,7.60
2023-01-09T08:24:56.357Z,8.30
2023-01-09T08:27:24.711Z,6.20
2023-01-09T08:29:54.350Z,9.60
2023-01-09T08:32:22.493Z,6.10
2023-01-09T08:34:50.692Z,6.20
2023-01-09T08:37:18.890Z,2.83
2023-01-09T08:39:48.603Z,10.13
2023-01-09T08:42:37.184Z,7.20
2023-01-09T08:45:25.343Z,8.93
2023-01-09T08:47:53.876Z,6.97
2023-01-09T08:50:22.290Z,5.23
2023-01-09T08:52:50.520Z,3.47
2023-01-09T08:55:18.762Z,10.23
2023-01-09T08:57:50.775Z,7.33
2023-01-09T09:00:22.547Z,8.73
2023-01-09T09:02:53.315Z,3.30
2023-01-09T09:05:22.258Z,11.10
2023-01-09T09:07:51.427Z,8.27
2023-01-09T09:10:19.883Z,7.30
2023-01-09T09:12:50.336Z,8.80
2023-01-09T09:15:24.031Z,10.00
2023-01-09T09:17:54.930Z,2.73
2023-01-09T09:20:24.366Z,15.87
2023-01-09T09:22:53.023Z,12.67
2023-01-09T09:25:21.813Z,10.00
2023-01-09T09:27:50.327Z,8.13
2023-01-09T09:30:20.895Z,5.53
2023-01-09T09:32:49.725Z,8.90
2023-01-09T09:35:21.242Z,3.60
2023-01-09T09:37:57.268Z,3.17
2023-01-09T09:40:57.622Z,12.40
2023-01-09T09:44:01.459Z,9.60
2023-01-09T09:46:39.907Z,3.47
2023-01-09T09:49:14.384Z,6.10
2023-01-09T09:51:57.698Z,11.30
2023-01-09T09:54:32.720Z,8.90
2023-01-09T09:57:03.563Z,9.43
2023-01-09T09:59:34.749Z,8.00
2023-01-09T10:02:11.475Z,8.20
2023-01-09T10:04:47.278Z,3.47
2023-01-09T10:07:23.248Z,5.10
2023-01-09T10:09:55.436Z,7.27
2023-01-09T10:12:29.321Z,4.33
2023-01-09T10:14:59.426Z,7.60
2023-01-09T10:17:38.159Z,5.20
2023-01-09T10:20:34.784Z,5.83
2023-01-09T10:23:19.143Z,11.50
2023-01-09T10:25:52.327Z,13.17
2023-01-09T10:28:37.907Z,11.57
2023-01-09T10:31:17.828Z,8.73
2023-01-09T10:33:55.956Z,8.53
2023-01-09T10:36:40.547Z,4.30
2023-01-09T10:39:16.536Z,8.13
2023-01-09T10:41:55.231Z,7.50
2023-01-09T10:44:27.462Z,3.80
2023-01-09T10:46:57.374Z,6.27
2023-01-09T10:49:26.023Z,5.03
2023-01-09T10:52:02.113Z,6.40
2023-01-09T10:54:31.881Z,15.10
2023-01-09T10:57:06.552Z,9.43
2023-01-09T10:59:34.731Z,3.70
2023-01-09T11:02:03.149Z,6.53
2023-01-09T11:04:34.173Z,7.03
2023-01-09T11:07:07.091Z,4.00
2023-01-09T11:09:58.348Z,11.80
2023-01-09T11:12:28.176Z,10.40
2023-01-09T11:14:56.501Z,11.90
2023-01-09T11:17:28.405Z,8.03
2023-01-09T11:20:04.401Z,11.43
2023-01-09T11:22:45.071Z,17.07
2023-01-09T11:25:17.426Z,7.03
2023-01-09T11:27:46.569Z,8.80
2023-01-09T11:30:26.749Z,5.80
2023-01-09T11:32:56.424Z,9.60
2023-01-09T11:35:28.506Z,9.90
2023-01-09T11:38:05.544Z,8.93
2023-01-09T11:40:45.483Z,11.30
2023-01-09T11:43:18.295Z,8.33
2023-01-09T11:46:00.572Z,9.70
2023-01-09T11:48:32.703Z,11.60
2023-01-09T11:51:02.992Z,6.93
2023-01-09T11:53:43.418Z,7.97
2023-01-09T11:56:15.666Z,8.73
2023-01-09T11:58:43.851Z,10.53
2023-01-09T12:01:27.170Z,12.90
2023-01-09T12:04:13.515Z,12.40
2023-01-09T12:06:52.815Z,9.23
2023-01-09T12:09:29.322Z,13.63
2023-01-09T12:12:05.991Z,13.77
2023-01-09T12:14:46.841Z,11.17
2023-01-09T12:17:46.065Z,11.73
2023-01-09T12:20:45.512Z,7.33
2023-01-09T12:23:29.693Z,10.77
2023-01-09T12:26:13.072Z,14.60
2023-01-09T12:28:56.705Z,9.33
2023-01-09T12:31:37.533Z,12.40
2023-01-09T12:34:20.935Z,11.60
2023-01-09T12:36:59.208Z,12.13
2023-01-09T12:39:38.546Z,11.57
2023-01-09T12:42:34.973Z,12.80
2023-01-09T12:45:14.320Z,14.80
2023-01-09T12:47:48.080Z,14.00
2023-01-09T12:50:45.573Z,8.93
2023-01-09T12:53:22.779Z,9.30
2023-01-09T12:55:56.597Z,19.50
2023-01-09T12:58:34.901Z,15.63
2023-01-09T13:01:07.476Z,16.23
2023-01-09T13:03:40.296Z,21.03
2023-01-09T13:06:15.763Z,13.10
2023-01-09T13:08:49.086Z,14.57
2023-01-09T13:11:22.154Z,15.50
2023-01-09T13:13:56.118Z,10.37
2023-01-09T13:16:32.193Z,10.03
2023-01-09T13:19:07.365Z,12.67
2023-01-09T13:21:36.098Z,10.73
2023-01-09T13:24:16.252Z,11.20
2023-01-09T13:26:46.745Z,10.03
2023-01-09T13:29:20.849Z,11.27
2023-01-09T13:32:17.018Z,8.07
2023-01-09T13:34:47.794Z,9.93
2023-01-09T13:37:25.987Z,8.60
2023-01-09T13:40:00.249Z,9.43
2023-01-09T13:42:44.323Z,9.83
2023-01-09T13:45:24.619Z,6.97
2023-01-09T13:48:40.007Z,11.13
2023-01-09T13:51:58.658Z,13.47
2023-01-09T13:55:18.876Z,12.47
2023-01-09T13:58:22.876Z,12.83
2023-01-09T14:01:00.101Z,13.07
2023-01-09T14:03:33.294Z,10.67
2023-01-09T14:06:20.651Z,9.70
2023-01-09T14:08:52.145Z,7.63
2023-01-09T14:11:27.602Z,12.50
2023-01-09T14:14:21.053Z,15.70
2023-01-09T14:16:49.515Z,12.40
2023-01-09T14:19:41.173Z,12.70
2023-01-09T14:22:24.637Z,10.77
2023-01-09T14:24:56.341Z,21.47
2023-01-09T14:28:08.513Z,8.07
2023-01-09T14:30:39.383Z,16.57
2023-01-09T14:33:28.689Z,14.20
2023-01-09T14:36:10.714Z,12.73
2023-01-09T14:38:42.739Z,13.33
2023-01-09T14:41:21.591Z,11.63
2023-01-09T14:43:58.866Z,11.20
2023-01-09T14:46:31.070Z,14.00
2023-01-09T14:49:06.539Z,9.97
2023-01-09T14:51:39.099Z,13.20
2023-01-09T14:54:19.207Z,5.10
2023-01-09T14:56:48.547Z,5.97
2023-01-09T14:59:17.552Z,12.93
2023-01-09T15:01:49.447Z,13.73
2023-01-09T15:04:31.752Z,15.30
2023-01-09T15:07:01.672Z,17.10
2023-01-09T15:09:34.415Z,15.03
2023-01-09T15:12:07.858Z,17.20
2023-01-09T15:14:40.155Z,19.40
2023-01-09T15:17:17.066Z,10.47
2023-01-09T15:19:47.214Z,15.97
2023-01-09T15:22:26.610Z,11.47
2023-01-09T15:24:54.891Z,20.13
2023-01-09T15:27:23.446Z,15.10
2023-01-09T15:29:52.929Z,15.93
2023-01-09T15:32:26.093Z,15.20
2023-01-09T15:34:56.205Z,15.47
2023-01-09T15:37:30.126Z,12.20
2023-01-09T15:39:59.943Z,16.43
2023-01-09T15:42:48.518Z,17.63
2023-01-09T15:45:29.625Z,11.00
2023-01-09T15:48:17.447Z,13.93
2023-01-09T15:50:48.619Z,10.73
2023-01-09T15:53:20.276Z,17.60
2023-01-09T15:56:05.318Z,12.13
2023-01-09T15:58:36.027Z,17.53
2023-01-09T16:01:06.699Z,11.23
2023-01-09T16:03:39.512Z,11.23
2023-01-09T16:06:10.783Z,17.43
2023-01-09T16:08:43.396Z,19.70
2023-01-09T16:11:23.684Z,24.83
2023-01-09T16:13:52.476Z,27.80
2023-01-09T16:16:27.907Z,17.60
2023-01-09T16:18:57.513Z,16.40
2023-01-09T16:21:32.599Z,18.27
2023-01-09T16:24:04.285Z,24.30
2023-01-09T16:26:33.017Z,16.57
2023-01-09T16:29:29.080Z,16.20
2023-01-09T16:32:02.041Z,10.70
2023-01-09T16:34:30.799Z,18.40
2023-01-09T16:36:59.331Z,11.97
2023-01-09T16:39:29.003Z,16.97
2023-01-09T16:42:15.648Z,17.13
2023-01-09T16:44:44.326Z,20.30
2023-01-09T16:47:13.574Z,20.53
2023-01-09T16:49:41.778Z,23.87
2023-01-09T16:52:17.302Z,20.43
2023-01-09T16:54:47.849Z,25.57
2023-01-09T16:57:19.851Z,13.70
2023-01-09T16:59:48.183Z,23.20
2023-01-09T17:02:19.247Z,15.00
2023-01-09T17:04:47.810Z,17.50
2023-01-09T17:07:16.985Z,19.03
2023-01-09T17:09:47.701Z,24.67
2023-01-09T17:12:20.293Z,20.73
2023-01-09T17:14:49.048Z,22.77
2023-01-09T17:17:20.811Z,17.93
2023-01-09T17:19:49.331Z,20.93
2023-01-09T17:22:17.407Z,22.43
2023-01-09T17:25:08.919Z,20.73
2023-01-09T17:27:58.079Z,25.03
2023-01-09T17:30:26.274Z,17.30
2023-01-09T17:32:55.104Z,23.30
2023-01-09T17:35:23.498Z,16.63
2023-01-09T17:37:51.564Z,28.53
2023-01-09T17:40:23.587Z,26.73
2023-01-09T17:42:51.703Z,23.20
2023-01-09T17:45:20.058Z,21.63
2023-01-09T17:47:48.217Z,24.00
2023-01-09T17:50:20.077Z,26.53
2023-01-09T17:52:48.778Z,32.50
2023-01-09T17:55:16.968Z,30.53
2023-01-09T17:57:46.546Z,27.47
2023-01-09T18:00:24.567Z,27.87
2023-01-09T18:02:53.151Z,20.63
2023-01-09T18:05:21.876Z,23.23
2023-01-09T18:07:50.897Z,26.60
2023-01-09T18:10:23.405Z,26.30
2023-01-09T18:12:54.468Z,26.20
2023-01-09T18:15:23.281Z,24.47
2023-01-09T18:17:51.788Z,31.33
2023-01-09T18:20:20.430Z,27.30
2023-01-09T18:22:49.787Z,25.90
2023-01-09T18:25:18.167Z,33.30
2023-01-09T18:27:46.614Z,26.40
2023-01-09T18:30:16.383Z,22.27
2023-01-09T18:32:44.648Z,23.03
2023-01-09T18:35:12.760Z,35.37
2023-01-09T18:37:40.900Z,23.73
2023-01-09T18:40:10.465Z,26.87
2023-01-09T18:42:39.370Z,26.40
2023-01-09T18:45:08.887Z,23.37
2023-01-09T18:47:38.512Z,30.20
2023-01-09T18:50:07.608Z,27.90
2023-01-09T18:52:35.707Z,30.13
2023-01-09T18:55:03.871Z,20.40
2023-01-09T18:57:32.102Z,26.97
2023-01-09T19:00:00.384Z,20.37
2023-01-09T19:02:28.606Z,25.37
2023-01-09T19:04:58.102Z,25.30
2023-01-09T19:07:26.514Z,29.63
2023-01-09T19:09:56.480Z,30.40
2023-01-09T19:12:24.761Z,26.93
2023-01-09T19:14:53.149Z,28.20
2023-01-09T19:17:21.222Z,29.70
2023-01-09T19:19:49.362Z,33.03
2023-01-09T19:22:19.701Z,29.67
2023-01-09T19:24:47.860Z,30.40
2023-01-09T19:27:16.172Z,33.23
2023-01-09T19:29:44.379Z,40.70
2023-01-09T19:32:13.940Z,35.37
2023-01-09T19:34:42.147Z,32.60
2023-01-09T19:37:10.425Z,39.77
2023-01-09T19:39:39.998Z,36.73
2023-01-09T19:42:08.125Z,31.27
2023-01-09T19:44:37.352Z,35.00
2023-01-09T19:47:05.744Z,48.50
2023-01-09T19:49:33.971Z,32.83
2023-01-09T19:52:02.164Z,32.40
2023-01-09T19:54:30.423Z,36.73
2023-01-09T19:57:00.110Z,35.50
2023-01-09T19:59:28.377Z,37.97
2023-01-09T20:01:56.512Z,38.40
2023-01-09T20:04:26.881Z,31.83
2023-01-09T20:06:54.930Z,41.30
2023-01-09T20:09:25.905Z,38.27
2023-01-09T20:11:54.213Z,33.53
2023-01-09T20:14:24.132Z,27.43
2023-01-09T20:16:54.269Z,33.57
2023-01-09T20:19:22.675Z,36.53
2023-01-09T20:21:51.023Z,36.60
2023-01-09T20:24:19.252Z,36.00
2023-01-09T20:26:47.546Z,37.23
2023-01-09T20:29:16.942Z,26.57
2023-01-09T20:31:46.658Z,27.87
2023-01-09T20:34:15.634Z,33.20
2023-01-09T20:36:44.249Z,29.80
2023-01-09T20:39:13.373Z,26.40
2023-01-09T20:41:42.729Z,26.80
2023-01-09T20:44:13.840Z,26.67
2023-01-09T20:46:43.910Z,25.13
2023-01-09T20:49:15.106Z,31.40
2023-01-09T20:51:44.763Z,27.43
2023-01-09T20:54:13.577Z,23.03
2023-01-09T20:56:41.861Z,38.23
2023-01-09T20:59:13.367Z,21.03
2023-01-09T21:01:41.570Z,24.20
2023-01-09T21:04:10.419Z,26.33
2023-01-09T21:06:40.420Z,30.37
2023-01-09T21:09:08.663Z,29.97
2023-01-09T21:11:36.886Z,41.87
2023-01-09T21:14:06.248Z,28.47
2023-01-09T21:16:34.480Z,32.50
2023-01-09T21:19:02.678Z,31.00
2023-01-09T21:21:30.992Z,27.40
2023-01-09T21:24:01.721Z,26.90
2023-01-09T21:26:30.936Z,22.80
2023-01-09T21:29:02.063Z,27.37
2023-01-09T21:31:34.814Z,23.00
2023-01-09T21:34:05.547Z,39.77
2023-01-09T21:36:35.429Z,31.87
2023-01-09T21:39:08.346Z,27.60
2023-01-09T21:42:09.375Z,39.67
2023-01-09T21:44:54.888Z,24.93
2023-01-09T21:47:23.043Z,32.27
2023-01-09T21:49:51.364Z,29.57
2023-01-09T21:52:19.628Z,36.47
2023-01-09T21:54:49.274Z,27.73
2023-01-09T21:57:17.483Z,25.40
2023-01-09T21:59:45.561Z,31.10
2023-01-09T22:02:15.834Z,33.27
2023-01-09T22:04:48.874Z,47.57
2023-01-09T22:07:18.162Z,27.13
2023-01-09T22:09:46.264Z,29.67
2023-01-09T22:12:15.822Z,31.60
2023-01-09T22:14:44.064Z,37.97
2023-01-09T22:17:12.216Z,34.20
2023-01-09T22:19:40.407Z,32.53
2023-01-09T22:22:08.656Z,47.57
2023-01-09T22:24:37.136Z,32.57
2023-01-09T22:27:05.555Z,28.73
2023-01-09T22:29:35.184Z,35.63
2023-01-09T22:32:03.542Z,31.80
2023-01-09T22:34:31.935Z,44.83
2023-01-09T22:37:00.167Z,33.97
2023-01-09T22:39:28.351Z,37.50
2023-01-09T22:41:56.506Z,38.37
2023-01-09T22:44:24.658Z,29.80
2023-01-09T22:46:54.196Z,38.80
2023-01-09T22:49:22.256Z,33.77
2023-01-09T22:51:50.477Z,32.93
2023-01-09T22:54:19.487Z,34.00
2023-01-09T22:56:47.676Z,30.50
2023-01-09T22:59:15.899Z,35.70
2023-01-09T23:01:44.096Z,30.03
2023-01-09T23:04:14.939Z,32.17
2023-01-09T23:06:43.442Z,35.53
2023-01-09T23:09:11.793Z,28.80
2023-01-09T23:11:57.303Z,26.33
2023-01-09T23:14:25.882Z,33.03
2023-01-09T23:16:54.243Z,29.00
2023-01-09T23:19:24.155Z,29.50
2023-01-09T23:21:52.562Z,30.30
2023-01-09T23:24:20.983Z,26.73
2023-01-09T23:26:49.901Z,33.67
2023-01-09T23:29:17.954Z,27.73
2023-01-09T23:31:46.207Z,31.47
2023-01-09T23:34:16.024Z,35.40
2023-01-09T23:36:47.631Z,31.00
2023-01-09T23:39:15.888Z,34.97
2023-01-09T23:42:01.320Z,38.63
2023-01-09T23:44:29.878Z,35.07
2023-01-09T23:46:58.225Z,33.90
2023-01-09T23:49:26.395Z,28.27
2023-01-09T23:51:56.593Z,36.90
2023-01-09T23:54:24.700Z,39.10
2023-01-09T23:56:53.547Z,41.17
2023-01-09T23:59:21.837Z,42.10
